Huvudsida
METAR-TAF:

METAR-TAF

Flygplatser :

Ljungbyhed, Sverige

latitud: 56-04N, longitud: 013-12E, höjd: 43 m

Aktuellt väderrapport

Denna rapport gjordes för 12 minuter sedan, klockan 20:50 UTC
Vind 12 kt från ost/sydost
Temperatur 2°C
Fuktighet 100%
Tryck 1025 hPa
Sikt: 8000 m
fuktdis

METAR: ESTL 212050Z AUTO 11012KT 8000 BR FEW008/// OVC009/// 02/02 Q1025

Tid: 22:02 (21:02 UTC)


TAF: saknas

Aktuella väderrapporter och prognoser från 4000 flygplatser (METAR- och TAF-rapporter).

De tillgängliga stationerna syns som gula och röda prickar på kartan.

För musen över prickarna för att se namnen på stationerna.

Klicka sedan för att få väderrapporter och prognoser.

För att ändra kartan: Klicka på de gröna knapparna med ett svart kors på för att zooma in; den gröna knappen med ett streck på för att zooma ut; eller på de gröna pilarna för angränsande kartor.


METAR-TAF: